createdAt,value
2023-05-02T00:00:52.714Z,50.877262
2023-05-02T00:01:52.654Z,50.877281
2023-05-02T00:02:52.792Z,50.877239
2023-05-02T00:03:52.764Z,50.877251
2023-05-02T00:04:52.595Z,50.877281
2023-05-02T00:05:52.630Z,50.877266
2023-05-02T00:06:52.691Z,50.877220
2023-05-02T00:07:52.562Z,50.877213
2023-05-02T00:08:52.550Z,50.877251
2023-05-02T00:09:52.564Z,50.877163
2023-05-02T00:10:52.582Z,50.877251
2023-05-02T00:11:52.539Z,50.877251
2023-05-02T00:12:52.535Z,50.877247
2023-05-02T00:13:52.514Z,50.877213
2023-05-02T00:14:52.516Z,50.877323
2023-05-02T00:15:52.489Z,50.877304
2023-05-02T00:16:52.526Z,50.877331
2023-05-02T00:17:52.524Z,50.877422
2023-05-02T00:18:52.488Z,50.877327
2023-05-02T00:19:52.470Z,50.877220
2023-05-02T00:20:52.462Z,50.877163
2023-05-02T00:21:52.445Z,50.877201
2023-05-02T00:22:52.414Z,50.877205
2023-05-02T00:23:52.417Z,50.877293
2023-05-02T00:24:52.412Z,50.877369
2023-05-02T00:25:52.407Z,50.877335
2023-05-02T00:26:52.399Z,50.877319
2023-05-02T00:27:52.373Z,50.877300
2023-05-02T00:28:52.382Z,50.877270
2023-05-02T00:29:52.381Z,50.877235
2023-05-02T00:30:52.373Z,50.877239
2023-05-02T00:31:52.364Z,50.877331
2023-05-02T00:32:52.374Z,50.877327
2023-05-02T00:33:52.348Z,50.877327
2023-05-02T00:34:52.324Z,50.877316
2023-05-02T00:35:52.367Z,50.877316
2023-05-02T00:36:53.276Z,50.877293
2023-05-02T00:37:52.275Z,50.877289
2023-05-02T00:38:52.264Z,50.877285
2023-05-02T00:39:52.253Z,50.877281
2023-05-02T00:40:52.276Z,50.877296
2023-05-02T00:41:52.263Z,50.877281
2023-05-02T00:42:52.252Z,50.877281
2023-05-02T00:43:52.212Z,50.877300
2023-05-02T00:44:52.197Z,50.877289
2023-05-02T00:45:52.299Z,50.877277
2023-05-02T00:46:52.218Z,50.877277
2023-05-02T00:47:52.202Z,50.877289
2023-05-02T00:48:52.176Z,50.877300
2023-05-02T00:49:52.146Z,50.877270
2023-05-02T00:50:52.146Z,50.877262
2023-05-02T00:51:52.174Z,50.877232
2023-05-02T00:52:53.144Z,50.877220
2023-05-02T00:53:52.128Z,50.877266
2023-05-02T00:54:52.132Z,50.877274
2023-05-02T00:55:52.100Z,50.877266
2023-05-02T00:56:52.089Z,50.877254
2023-05-02T00:57:53.084Z,50.877209
2023-05-02T00:58:52.088Z,50.877232
2023-05-02T00:59:52.053Z,50.877251
2023-05-02T01:00:52.091Z,50.877220
2023-05-02T01:01:52.062Z,50.877247
2023-05-02T01:02:52.205Z,50.877247
2023-05-02T01:03:52.206Z,50.877247
2023-05-02T01:04:52.022Z,50.877235
2023-05-02T01:05:51.999Z,50.877213
2023-05-02T01:06:52.110Z,50.877232
2023-05-02T01:07:51.956Z,50.877239
2023-05-02T01:08:51.975Z,50.877224
2023-05-02T01:09:51.960Z,50.877228
2023-05-02T01:10:51.971Z,50.877254
2023-05-02T01:11:51.933Z,50.877308
2023-05-02T01:12:51.918Z,50.877228
2023-05-02T01:13:51.929Z,50.877296
2023-05-02T01:14:51.937Z,50.877296
2023-05-02T01:15:52.004Z,50.877277
2023-05-02T01:16:51.908Z,50.877262
2023-05-02T01:17:51.952Z,50.877304
2023-05-02T01:18:51.854Z,50.877235
2023-05-02T01:19:51.848Z,50.877270
2023-05-02T01:20:51.862Z,50.877262
2023-05-02T01:21:51.819Z,50.877254
2023-05-02T01:22:51.806Z,50.877254
2023-05-02T01:23:51.812Z,50.877235
2023-05-02T01:24:51.802Z,50.877209
2023-05-02T01:25:51.814Z,50.877228
2023-05-02T01:26:51.797Z,50.877258
2023-05-02T01:27:51.767Z,50.877251
2023-05-02T01:28:51.760Z,50.877254
2023-05-02T01:29:51.751Z,50.877251
2023-05-02T01:30:51.781Z,50.877266
2023-05-02T01:31:51.754Z,50.877243
2023-05-02T01:32:51.749Z,50.877220
2023-05-02T01:33:51.708Z,50.877251
2023-05-02T01:34:51.704Z,50.877327
2023-05-02T01:35:51.715Z,50.877300
2023-05-02T01:36:51.692Z,50.877277
2023-05-02T01:37:52.690Z,50.877289
2023-05-02T01:38:51.719Z,50.877251
2023-05-02T01:39:51.651Z,50.877247
2023-05-02T01:40:51.647Z,50.877243
2023-05-02T01:41:51.694Z,50.877254
2023-05-02T01:42:51.611Z,50.877285
2023-05-02T01:43:51.620Z,50.877262
2023-05-02T01:44:51.588Z,50.877266
2023-05-02T01:45:51.587Z,50.877247
2023-05-02T01:46:51.667Z,50.877232
2023-05-02T01:47:51.632Z,50.877205
2023-05-02T01:48:51.558Z,50.877224
2023-05-02T01:49:51.566Z,50.877251
2023-05-02T01:50:51.573Z,50.877232
2023-05-02T01:51:52.553Z,50.877213
2023-05-02T01:52:51.564Z,50.877220
2023-05-02T01:53:51.541Z,50.877228
2023-05-02T01:54:51.514Z,50.877171
2023-05-02T01:55:51.493Z,50.877190
2023-05-02T01:56:51.565Z,50.877174
2023-05-02T01:57:51.479Z,50.877182
2023-05-02T01:58:51.460Z,50.877151
2023-05-02T01:59:51.460Z,50.877186
2023-05-02T02:00:51.500Z,50.877167
2023-05-02T02:01:51.454Z,50.877178
2023-05-02T02:02:51.459Z,50.877239
2023-05-02T02:03:51.554Z,50.877243
2023-05-02T02:04:51.418Z,50.877232
2023-05-02T02:05:51.432Z,50.877186
2023-05-02T02:06:51.396Z,50.877155
2023-05-02T02:07:51.427Z,50.877243
2023-05-02T02:08:51.353Z,50.877289
2023-05-02T02:09:51.414Z,50.877262
2023-05-02T02:10:51.346Z,50.877262
2023-05-02T02:11:51.439Z,50.877186
2023-05-02T02:12:51.318Z,50.877182
2023-05-02T02:13:51.316Z,50.877140
2023-05-02T02:14:51.344Z,50.877144
2023-05-02T02:15:51.304Z,50.877190
2023-05-02T02:16:51.323Z,50.877251
2023-05-02T02:17:51.291Z,50.877209
2023-05-02T02:18:51.275Z,50.877247
2023-05-02T02:19:51.266Z,50.877163
2023-05-02T02:20:51.262Z,50.877205
2023-05-02T02:21:51.233Z,50.877213
2023-05-02T02:22:51.226Z,50.877209
2023-05-02T02:23:51.219Z,50.877209
2023-05-02T02:24:52.458Z,50.877220
2023-05-02T02:25:51.230Z,50.877201
2023-05-02T02:26:51.194Z,50.877220
2023-05-02T02:27:51.177Z,50.877201
2023-05-02T02:28:51.161Z,50.877190
2023-05-02T02:29:51.157Z,50.877190
2023-05-02T02:30:51.189Z,50.877167
2023-05-02T02:31:51.133Z,50.877174
2023-05-02T02:32:52.210Z,50.877171
2023-05-02T02:33:51.109Z,50.877163
2023-05-02T02:34:51.088Z,50.877167
2023-05-02T02:35:51.109Z,50.877182
2023-05-02T02:36:51.096Z,50.877186
2023-05-02T02:37:51.069Z,50.877186
2023-05-02T02:38:51.091Z,50.877205
2023-05-02T02:39:51.051Z,50.877190
2023-05-02T02:40:51.042Z,50.877178
2023-05-02T02:41:51.044Z,50.877174
2023-05-02T02:42:51.027Z,50.877174
2023-05-02T02:43:51.039Z,50.877186
2023-05-02T02:44:51.021Z,50.877186
2023-05-02T02:45:51.072Z,50.877197
2023-05-02T02:46:50.986Z,50.877178
2023-05-02T02:47:51.052Z,50.877167
2023-05-02T02:48:50.989Z,50.877167
2023-05-02T02:49:50.997Z,50.877182
2023-05-02T02:50:50.949Z,50.877201
2023-05-02T02:51:51.007Z,50.877193
2023-05-02T02:52:50.940Z,50.877190
2023-05-02T02:53:51.011Z,50.877167
2023-05-02T02:54:50.951Z,50.877182
2023-05-02T02:55:51.001Z,50.877186
2023-05-02T02:56:50.904Z,50.877197
2023-05-02T02:57:50.891Z,50.877205
2023-05-02T02:58:50.891Z,50.877174
2023-05-02T02:59:50.883Z,50.877178
2023-05-02T03:00:50.888Z,50.877182
2023-05-02T03:01:50.872Z,50.877174
2023-05-02T03:02:50.897Z,50.877151
2023-05-02T03:03:50.921Z,50.877174
2023-05-02T03:04:50.828Z,50.877167
2023-05-02T03:05:50.830Z,50.877178
2023-05-02T03:06:50.849Z,50.877174
2023-05-02T03:07:50.823Z,50.877186
2023-05-02T03:08:50.786Z,50.877205
2023-05-02T03:09:50.782Z,50.877190
2023-05-02T03:10:50.753Z,50.877190
2023-05-02T03:11:50.740Z,50.877182
2023-05-02T03:12:50.749Z,50.877197
2023-05-02T03:13:50.739Z,50.877174
2023-05-02T03:14:50.722Z,50.877171
2023-05-02T03:15:50.730Z,50.877163
2023-05-02T03:16:50.704Z,50.877151
2023-05-02T03:18:22.603Z,50.877136
2023-05-02T03:18:50.631Z,50.877132
2023-05-02T03:19:50.613Z,50.877167
2023-05-02T03:20:51.617Z,50.877174
2023-05-02T03:21:50.622Z,50.877182
2023-05-02T03:22:50.599Z,50.877186
2023-05-02T03:23:50.588Z,50.877186
2023-05-02T03:24:50.568Z,50.877159
2023-05-02T03:25:50.559Z,50.877167
2023-05-02T03:26:50.610Z,50.877174
2023-05-02T03:27:50.644Z,50.877174
2023-05-02T03:28:50.537Z,50.877144
2023-05-02T03:29:50.527Z,50.877163
2023-05-02T03:30:50.517Z,50.877159
2023-05-02T03:31:50.635Z,50.877171
2023-05-02T03:32:50.589Z,50.877182
2023-05-02T03:33:50.484Z,50.877163
2023-05-02T03:34:50.487Z,50.877163
2023-05-02T03:35:50.471Z,50.877171
2023-05-02T03:36:50.473Z,50.877171
2023-05-02T03:37:50.480Z,50.877167
2023-05-02T03:38:50.445Z,50.877159
2023-05-02T03:39:50.424Z,50.877148
2023-05-02T03:40:50.423Z,50.877125
2023-05-02T03:41:50.458Z,50.877136
2023-05-02T03:42:50.402Z,50.877102
2023-05-02T03:43:50.380Z,50.877140
2023-05-02T03:44:50.373Z,50.877148
2023-05-02T03:45:50.369Z,50.877159
2023-05-02T03:46:50.509Z,50.877159
2023-05-02T03:47:50.421Z,50.877182
2023-05-02T03:48:50.337Z,50.877174
2023-05-02T03:49:50.335Z,50.877178
2023-05-02T03:50:50.326Z,50.877178
2023-05-02T03:51:50.310Z,50.877174
2023-05-02T03:52:50.356Z,50.877155
2023-05-02T03:53:50.282Z,50.877182
2023-05-02T03:54:50.290Z,50.877182
2023-05-02T03:55:50.270Z,50.877167
2023-05-02T03:56:50.256Z,50.877155
2023-05-02T03:57:50.243Z,50.877163
2023-05-02T03:58:50.258Z,50.877163
2023-05-02T03:59:50.228Z,50.877171
2023-05-02T04:00:50.237Z,50.877163
2023-05-02T04:01:50.357Z,50.877171
2023-05-02T04:02:50.454Z,50.877174
2023-05-02T04:03:50.219Z,50.877182
2023-05-02T04:04:50.201Z,50.877163
2023-05-02T04:05:50.189Z,50.877171
2023-05-02T04:06:50.272Z,50.877167
2023-05-02T04:07:50.149Z,50.877167
2023-05-02T04:08:50.136Z,50.877155
2023-05-02T04:09:50.160Z,50.877182
2023-05-02T04:10:50.157Z,50.877213
2023-05-02T04:11:50.106Z,50.877144
2023-05-02T04:12:50.089Z,50.877155
2023-05-02T04:13:52.587Z,50.877163
2023-05-02T04:14:50.080Z,50.877190
2023-05-02T04:15:50.182Z,50.877182
2023-05-02T04:16:50.152Z,50.877174
2023-05-02T04:17:50.086Z,50.877167
2023-05-02T04:18:50.047Z,50.877186
2023-05-02T04:19:50.030Z,50.877201
2023-05-02T04:20:50.021Z,50.877186
2023-05-02T04:21:50.030Z,50.877193
2023-05-02T04:22:50.008Z,50.877193
2023-05-02T04:23:49.987Z,50.877178
2023-05-02T04:24:49.982Z,50.877190
2023-05-02T04:25:49.973Z,50.877182
2023-05-02T04:26:50.004Z,50.877129
2023-05-02T04:27:50.030Z,50.877144
2023-05-02T04:28:49.942Z,50.877174
2023-05-02T04:29:50.927Z,50.877171
2023-05-02T04:30:49.997Z,50.877197
2023-05-02T04:31:49.954Z,50.877163
2023-05-02T04:32:49.963Z,50.877193
2023-05-02T04:33:49.906Z,50.877213
2023-05-02T04:34:49.876Z,50.877209
2023-05-02T04:35:49.882Z,50.877159
2023-05-02T04:36:49.884Z,50.877193
2023-05-02T04:37:49.857Z,50.877193
2023-05-02T04:38:49.837Z,50.877148
2023-05-02T04:39:49.828Z,50.877193
2023-05-02T04:40:49.815Z,50.877213
2023-05-02T04:41:49.894Z,50.877201
2023-05-02T04:42:49.795Z,50.877205
2023-05-02T04:43:49.805Z,50.877201
2023-05-02T04:44:49.781Z,50.877201
2023-05-02T04:45:49.808Z,50.877205
2023-05-02T04:46:49.866Z,50.877140
2023-05-02T04:47:49.961Z,50.877171
2023-05-02T04:48:49.745Z,50.877186
2023-05-02T04:49:49.719Z,50.877213
2023-05-02T04:50:49.715Z,50.877155
2023-05-02T04:51:49.722Z,50.877209
2023-05-02T04:52:49.725Z,50.877205
2023-05-02T04:53:49.689Z,50.877182
2023-05-02T04:54:49.705Z,50.877186
2023-05-02T04:55:49.696Z,50.877163
2023-05-02T04:56:49.659Z,50.877171
2023-05-02T04:57:49.682Z,50.877159
2023-05-02T04:58:49.657Z,50.877151
2023-05-02T04:59:49.653Z,50.877197
2023-05-02T05:00:49.634Z,50.877224
2023-05-02T05:01:49.636Z,50.877205
2023-05-02T05:02:49.685Z,50.877220
2023-05-02T05:03:49.753Z,50.877178
2023-05-02T05:04:49.596Z,50.877201
2023-05-02T05:05:49.568Z,50.877186
2023-05-02T05:06:49.619Z,50.877178
2023-05-02T05:07:49.552Z,50.877174
2023-05-02T05:08:49.574Z,50.877163
2023-05-02T05:09:51.179Z,50.877171
2023-05-02T05:10:49.527Z,50.877155
2023-05-02T05:11:49.513Z,50.877205
2023-05-02T05:12:49.509Z,50.877182
2023-05-02T05:13:49.512Z,50.877239
2023-05-02T05:14:49.483Z,50.877197
2023-05-02T05:15:49.523Z,50.877178
2023-05-02T05:16:49.608Z,50.877205
2023-05-02T05:17:49.469Z,50.877205
2023-05-02T05:18:49.487Z,50.877201
2023-05-02T05:19:49.455Z,50.877140
2023-05-02T05:20:49.431Z,50.877190
2023-05-02T05:21:49.432Z,50.877159
2023-05-02T05:22:49.403Z,50.877186
2023-05-02T05:23:49.407Z,50.877075
2023-05-02T05:24:49.404Z,50.877136
2023-05-02T05:25:49.382Z,50.877182
2023-05-02T05:26:49.376Z,50.877132
2023-05-02T05:27:49.355Z,50.877205
2023-05-02T05:28:49.371Z,50.877193
2023-05-02T05:29:49.367Z,50.877201
2023-05-02T05:30:49.327Z,50.877083
2023-05-02T05:31:49.416Z,50.877136
2023-05-02T05:32:49.333Z,50.877144
2023-05-02T05:33:49.398Z,50.877209
2023-05-02T05:34:49.285Z,50.877174
2023-05-02T05:35:49.274Z,50.877239
2023-05-02T05:36:49.278Z,50.877174
2023-05-02T05:37:49.249Z,50.877148
2023-05-02T05:38:49.266Z,50.877151
2023-05-02T05:39:49.231Z,50.877167
2023-05-02T05:40:49.246Z,50.877121
2023-05-02T05:41:49.203Z,50.877075
2023-05-02T05:42:49.201Z,50.877182
2023-05-02T05:43:49.240Z,50.877220
2023-05-02T05:44:49.192Z,50.877151
2023-05-02T05:45:49.168Z,50.877209
2023-05-02T05:46:49.194Z,50.877262
2023-05-02T05:47:49.963Z,50.877274
2023-05-02T05:48:49.193Z,50.877216
2023-05-02T05:49:49.150Z,50.877254
2023-05-02T05:50:49.126Z,50.877163
2023-05-02T05:51:49.132Z,50.876995
2023-05-02T05:52:49.106Z,50.877003
2023-05-02T05:53:49.103Z,50.877129
2023-05-02T05:54:49.127Z,50.877033
2023-05-02T05:55:49.077Z,50.877102
2023-05-02T05:56:49.092Z,50.877102
2023-05-02T05:57:49.051Z,50.877140
2023-05-02T05:58:49.038Z,50.877331
2023-05-02T05:59:49.030Z,50.877216
2023-05-02T06:00:49.043Z,50.877144
2023-05-02T06:01:49.033Z,50.877144
2023-05-02T06:02:49.150Z,50.877144
2023-05-02T06:03:49.066Z,50.877144
2023-05-02T06:04:49.016Z,50.877144
2023-05-02T06:05:48.980Z,50.877144
2023-05-02T06:06:49.012Z,50.877144
2023-05-02T06:07:49.041Z,50.877144
2023-05-02T06:08:48.958Z,50.877144
2023-05-02T06:09:48.954Z,50.877144
2023-05-02T06:10:48.937Z,50.877144
2023-05-02T06:11:48.920Z,50.877144
2023-05-02T06:12:49.359Z,50.877144
2023-05-02T06:13:49.907Z,50.877193
2023-05-02T06:14:48.886Z,50.877190
2023-05-02T06:15:48.979Z,50.877197
2023-05-02T06:16:48.885Z,50.877201
2023-05-02T06:17:48.930Z,50.877205
2023-05-02T06:18:48.906Z,50.877178
2023-05-02T06:19:48.840Z,50.877186
2023-05-02T06:20:48.828Z,50.877182
2023-05-02T06:21:48.816Z,50.877190
2023-05-02T06:22:48.844Z,50.877186
2023-05-02T06:23:48.878Z,50.877167
2023-05-02T06:24:48.792Z,50.877190
2023-05-02T06:25:48.785Z,50.877182
2023-05-02T06:26:48.794Z,50.877159
2023-05-02T06:27:48.773Z,50.877163
2023-05-02T06:28:48.770Z,50.877186
2023-05-02T06:29:48.774Z,50.877190
2023-05-02T06:30:48.728Z,50.877182
2023-05-02T06:31:48.750Z,50.877174
2023-05-02T06:32:48.731Z,50.877174
2023-05-02T06:33:48.739Z,50.877193
2023-05-02T06:34:48.699Z,50.877182
2023-05-02T06:35:48.693Z,50.877186
2023-05-02T06:36:48.690Z,50.877174
2023-05-02T06:37:48.660Z,50.877190
2023-05-02T06:38:48.709Z,50.877201
2023-05-02T06:39:48.672Z,50.877174
2023-05-02T06:40:48.645Z,50.877178
2023-05-02T06:41:48.620Z,50.877163
2023-05-02T06:42:48.611Z,50.877159
2023-05-02T06:43:48.629Z,50.877171
2023-05-02T06:44:49.582Z,50.877167
2023-05-02T06:45:48.619Z,50.877136
2023-05-02T06:46:48.632Z,50.877174
2023-05-02T06:47:48.587Z,50.877190
2023-05-02T06:48:48.630Z,50.877178
2023-05-02T06:49:48.541Z,50.877159
2023-05-02T06:50:48.562Z,50.877174
2023-05-02T06:51:48.519Z,50.877167
2023-05-02T06:52:48.519Z,50.877163
2023-05-02T06:53:48.552Z,50.877186
2023-05-02T06:54:48.484Z,50.877178
2023-05-02T06:55:48.501Z,50.877171
2023-05-02T06:56:48.468Z,50.877094
2023-05-02T06:57:48.457Z,50.877140
2023-05-02T06:58:48.480Z,50.877144
2023-05-02T06:59:48.525Z,50.877163
2023-05-02T07:00:48.456Z,50.877182
2023-05-02T07:01:48.420Z,50.877171
2023-05-02T07:02:48.451Z,50.877167
2023-05-02T07:03:48.493Z,50.877113
2023-05-02T07:04:48.447Z,50.877125
2023-05-02T07:05:48.377Z,50.877178
2023-05-02T07:06:48.504Z,50.877178
2023-05-02T07:07:48.375Z,50.877178
2023-05-02T07:08:48.379Z,50.877190
2023-05-02T07:09:48.338Z,50.877190
2023-05-02T07:10:48.347Z,50.877190
2023-05-02T07:11:48.314Z,50.877174
2023-05-02T07:12:48.300Z,50.877190
2023-05-02T07:13:48.320Z,50.877174
2023-05-02T07:14:48.288Z,50.877178
2023-05-02T07:15:48.289Z,50.877171
2023-05-02T07:16:48.314Z,50.877220
2023-05-02T07:17:48.275Z,50.877193
2023-05-02T07:18:48.247Z,50.877171
2023-05-02T07:19:48.258Z,50.877171
2023-05-02T07:20:48.228Z,50.877182
2023-05-02T07:21:48.216Z,50.877167
2023-05-02T07:22:48.224Z,50.877171
2023-05-02T07:23:48.204Z,50.877151
2023-05-02T07:24:48.207Z,50.877190
2023-05-02T07:25:48.181Z,50.877167
2023-05-02T07:26:48.176Z,50.877197
2023-05-02T07:27:48.172Z,50.877213
2023-05-02T07:28:48.173Z,50.877171
2023-05-02T07:29:48.139Z,50.877186
2023-05-02T07:30:48.120Z,50.877102
2023-05-02T07:31:48.208Z,50.877125
2023-05-02T07:32:48.165Z,50.877213
2023-05-02T07:33:48.115Z,50.877220
2023-05-02T07:34:48.090Z,50.877209
2023-05-02T07:35:48.119Z,50.877155
2023-05-02T07:36:48.083Z,50.877209
2023-05-02T07:37:48.080Z,50.877228
2023-05-02T07:38:48.044Z,50.877274
2023-05-02T07:39:48.038Z,50.877258
2023-05-02T07:40:48.048Z,50.877304
2023-05-02T07:41:48.020Z,50.877274
2023-05-02T07:42:48.048Z,50.877148
2023-05-02T07:43:48.026Z,50.877171
2023-05-02T07:44:47.987Z,50.877201
2023-05-02T07:45:48.028Z,50.877197
2023-05-02T07:46:48.180Z,50.877220
2023-05-02T07:47:47.973Z,50.877159
2023-05-02T07:48:47.968Z,50.877224
2023-05-02T07:49:47.945Z,50.877224
2023-05-02T07:50:47.927Z,50.877247
2023-05-02T07:51:47.944Z,50.877224
2023-05-02T07:52:47.941Z,50.877174
2023-05-02T07:53:47.906Z,50.877205
2023-05-02T07:54:47.891Z,50.877209
2023-05-02T07:55:47.908Z,50.877125
2023-05-02T07:56:47.895Z,50.877193
2023-05-02T07:57:47.881Z,50.877178
2023-05-02T07:58:47.848Z,50.877201
2023-05-02T07:59:47.845Z,50.877228
2023-05-02T08:00:47.873Z,50.877197
2023-05-02T08:01:47.839Z,50.877186
2023-05-02T08:02:47.933Z,50.877197
2023-05-02T08:03:48.040Z,50.877182
2023-05-02T08:04:47.859Z,50.877205
2023-05-02T08:05:47.775Z,50.877167
2023-05-02T08:06:47.800Z,50.877174
2023-05-02T08:07:47.755Z,50.877167
2023-05-02T08:08:47.768Z,50.877220
2023-05-02T08:09:47.739Z,50.877190
2023-05-02T08:10:47.735Z,50.877201
2023-05-02T08:11:47.737Z,50.877171
2023-05-02T08:12:47.703Z,50.877193
2023-05-02T08:13:47.700Z,50.877213
2023-05-02T08:14:47.684Z,50.877186
2023-05-02T08:15:47.906Z,50.877201
2023-05-02T08:16:47.743Z,50.877220
2023-05-02T08:17:47.721Z,50.877178
2023-05-02T08:18:47.667Z,50.877182
2023-05-02T08:19:47.639Z,50.877167
2023-05-02T08:20:47.765Z,50.877186
2023-05-02T08:21:47.625Z,50.877182
2023-05-02T08:22:47.607Z,50.877182
2023-05-02T08:23:47.607Z,50.877159
2023-05-02T08:24:47.639Z,50.877148
2023-05-02T08:25:47.602Z,50.877171
2023-05-02T08:26:47.580Z,50.877213
2023-05-02T08:27:47.561Z,50.877209
2023-05-02T08:28:47.573Z,50.877213
2023-05-02T08:29:47.546Z,50.877235
2023-05-02T08:30:47.536Z,50.877232
2023-05-02T08:31:47.550Z,50.877258
2023-05-02T08:32:47.621Z,50.877251
2023-05-02T08:33:47.520Z,50.877243
2023-05-02T08:34:47.528Z,50.877232
2023-05-02T08:35:47.511Z,50.877197
2023-05-02T08:36:47.496Z,50.877239
2023-05-02T08:37:47.507Z,50.877239
2023-05-02T08:38:47.507Z,50.877239
2023-05-02T08:39:47.468Z,50.877205
2023-05-02T08:40:47.445Z,50.877228
2023-05-02T08:41:47.454Z,50.877213
2023-05-02T08:42:47.424Z,50.877209
2023-05-02T08:43:47.435Z,50.877262
2023-05-02T08:44:47.393Z,50.877239
2023-05-02T08:45:47.383Z,50.877254
2023-05-02T08:46:47.427Z,50.877254
2023-05-02T08:47:47.409Z,50.877220
2023-05-02T08:48:47.360Z,50.877220
2023-05-02T08:49:47.342Z,50.877235
2023-05-02T08:50:47.384Z,50.877445
2023-05-02T08:51:47.350Z,50.877232
2023-05-02T08:52:47.310Z,50.877213
2023-05-02T08:53:47.304Z,50.877144
2023-05-02T08:54:47.363Z,50.877193
2023-05-02T08:55:47.278Z,50.877193
2023-05-02T08:56:47.290Z,50.877193
2023-05-02T08:57:47.279Z,50.877193
2023-05-02T08:58:47.252Z,50.877193
2023-05-02T08:59:47.366Z,50.877193
2023-05-02T09:00:47.261Z,50.877193
2023-05-02T09:01:47.284Z,50.877155
2023-05-02T09:02:47.306Z,50.877148
2023-05-02T09:03:47.232Z,50.877148
2023-05-02T09:04:47.262Z,50.877148
2023-05-02T09:05:47.180Z,50.877148
2023-05-02T09:06:47.257Z,50.877682
2023-05-02T09:07:47.174Z,50.877613
2023-05-02T09:08:47.172Z,50.877563
2023-05-02T09:09:47.139Z,50.877537
2023-05-02T09:10:47.135Z,50.877384
2023-05-02T09:11:47.126Z,50.877384
2023-05-02T09:12:47.114Z,50.877384
2023-05-02T09:13:47.122Z,50.877384
2023-05-02T09:14:47.195Z,50.877377
2023-05-02T09:15:47.077Z,50.877296
2023-05-02T09:16:47.087Z,50.877270
2023-05-02T09:18:19.009Z,50.877243
2023-05-02T09:18:47.074Z,50.877193
2023-05-02T09:19:47.069Z,50.877182
2023-05-02T09:20:47.092Z,50.877163
2023-05-02T09:21:47.019Z,50.877159
2023-05-02T09:22:47.013Z,50.877159
2023-05-02T09:23:47.046Z,50.877182
2023-05-02T09:24:46.992Z,50.877193
2023-05-02T09:25:46.993Z,50.877205
2023-05-02T09:26:47.005Z,50.877186
2023-05-02T09:27:47.010Z,50.877197
2023-05-02T09:28:46.963Z,50.877197
2023-05-02T09:29:46.952Z,50.877190
2023-05-02T09:30:47.062Z,50.877125
2023-05-02T09:31:55.664Z,50.877163
2023-05-02T09:32:48.969Z,50.877186
2023-05-02T09:33:46.927Z,50.877197
2023-05-02T09:34:46.930Z,50.877197
2023-05-02T09:35:47.887Z,50.877205
2023-05-02T09:36:46.918Z,50.877193
2023-05-02T09:37:46.869Z,50.877190
2023-05-02T09:38:46.912Z,50.877205
2023-05-02T09:39:46.853Z,50.877213
2023-05-02T09:40:46.891Z,50.877228
2023-05-02T09:41:46.875Z,50.877232
2023-05-02T09:42:46.854Z,50.877220
2023-05-02T09:43:46.816Z,50.877205
2023-05-02T09:44:46.792Z,50.877209
2023-05-02T09:45:46.816Z,50.877213
2023-05-02T09:46:47.798Z,50.877201
2023-05-02T09:47:46.792Z,50.877213
2023-05-02T09:48:46.785Z,50.877220
2023-05-02T09:49:47.002Z,50.877209
2023-05-02T09:50:46.733Z,50.877220
2023-05-02T09:51:46.769Z,50.877209
2023-05-02T09:52:46.761Z,50.877209
2023-05-02T09:53:46.720Z,50.877220
2023-05-02T09:54:46.986Z,50.877205
2023-05-02T09:55:46.708Z,50.877213
2023-05-02T09:56:46.681Z,50.877213
2023-05-02T09:57:46.700Z,50.877205
2023-05-02T09:58:46.787Z,50.877190
2023-05-02T09:59:46.648Z,50.877213
2023-05-02T10:00:46.664Z,50.877205
2023-05-02T10:01:46.658Z,50.877228
2023-05-02T10:02:46.716Z,50.877224
2023-05-02T10:03:46.676Z,50.877228
2023-05-02T10:04:46.649Z,50.877224
2023-05-02T10:05:46.637Z,50.877197
2023-05-02T10:06:46.731Z,50.877148
2023-05-02T10:07:46.654Z,50.877136
2023-05-02T10:08:46.563Z,50.877140
2023-05-02T10:09:46.618Z,50.877159
2023-05-02T10:10:46.557Z,50.877167
2023-05-02T10:11:46.550Z,50.877148
2023-05-02T10:12:46.536Z,50.877186
2023-05-02T10:13:46.581Z,50.877190
2023-05-02T10:14:46.508Z,50.877201
2023-05-02T10:15:46.546Z,50.877190
2023-05-02T10:16:46.495Z,50.877201
2023-05-02T10:17:46.549Z,50.877186
2023-05-02T10:18:46.484Z,50.877190
2023-05-02T10:19:46.440Z,50.877182
2023-05-02T10:20:46.473Z,50.877201
2023-05-02T10:21:46.462Z,50.877193
2023-05-02T10:22:46.741Z,50.877167
2023-05-02T10:23:46.480Z,50.877186
2023-05-02T10:24:46.452Z,50.877151
2023-05-02T10:25:46.431Z,50.877174
2023-05-02T10:26:46.391Z,50.877186
2023-05-02T10:27:46.383Z,50.877193
2023-05-02T10:28:46.352Z,50.877193
2023-05-02T10:29:46.382Z,50.877190
2023-05-02T10:30:46.423Z,50.877193
2023-05-02T10:31:46.399Z,50.877163
2023-05-02T10:32:46.359Z,50.877144
2023-05-02T10:33:46.332Z,50.877182
2023-05-02T10:34:46.307Z,50.877190
2023-05-02T10:35:46.344Z,50.877205
2023-05-02T10:36:46.286Z,50.877186
2023-05-02T10:37:46.295Z,50.877182
2023-05-02T10:38:46.267Z,50.877171
2023-05-02T10:39:46.260Z,50.877178
2023-05-02T10:40:46.283Z,50.877190
2023-05-02T10:41:46.256Z,50.877193
2023-05-02T10:42:46.303Z,50.877190
2023-05-02T10:43:46.217Z,50.877155
2023-05-02T10:44:46.231Z,50.877182
2023-05-02T10:45:46.220Z,50.877205
2023-05-02T10:46:46.214Z,50.877216
2023-05-02T10:47:46.230Z,50.877213
2023-05-02T10:48:46.177Z,50.877186
2023-05-02T10:49:46.169Z,50.877197
2023-05-02T10:50:46.132Z,50.877213
2023-05-02T10:51:46.172Z,50.877201
2023-05-02T10:52:46.133Z,50.877224
2023-05-02T10:53:46.178Z,50.877220
2023-05-02T10:54:46.386Z,50.877205
2023-05-02T10:55:46.116Z,50.877209
2023-05-02T10:56:46.121Z,50.877220
2023-05-02T10:57:46.062Z,50.877216
2023-05-02T10:58:46.082Z,50.877201
2023-05-02T10:59:46.068Z,50.877205
2023-05-02T11:00:46.134Z,50.877213
2023-05-02T11:01:46.113Z,50.877216
2023-05-02T11:02:46.129Z,50.877205
2023-05-02T11:03:46.005Z,50.877193
2023-05-02T11:04:46.011Z,50.877148
2023-05-02T11:05:45.986Z,50.877193
2023-05-02T11:06:46.035Z,50.877197
2023-05-02T11:07:45.984Z,50.877186
2023-05-02T11:08:45.963Z,50.877220
2023-05-02T11:09:45.968Z,50.877209
2023-05-02T11:10:45.957Z,50.877216
2023-05-02T11:11:45.930Z,50.877228
2023-05-02T11:12:45.926Z,50.877220
2023-05-02T11:13:45.903Z,50.877235
2023-05-02T11:14:45.929Z,50.877167
2023-05-02T11:15:45.923Z,50.877190
2023-05-02T11:16:45.928Z,50.877228
2023-05-02T11:17:45.883Z,50.877205
2023-05-02T11:18:45.874Z,50.877220
2023-05-02T11:19:45.917Z,50.877213
2023-05-02T11:20:45.911Z,50.877228
2023-05-02T11:21:45.832Z,50.877251
2023-05-02T11:22:45.803Z,50.877197
2023-05-02T11:23:45.810Z,50.877201
2023-05-02T11:24:45.813Z,50.877235